createdAt,value
2017-01-24T00:02:35.210Z,1019.93
2017-01-24T00:07:32.331Z,1019.91
2017-01-24T00:12:28.572Z,1019.88
2017-01-24T00:17:25.220Z,1019.88
2017-01-24T00:22:21.527Z,1019.88
2017-01-24T00:27:17.941Z,1019.93
2017-01-24T00:32:14.751Z,1019.82
2017-01-24T00:37:11.861Z,1019.70
2017-01-24T00:42:08.439Z,1019.70
2017-01-24T00:47:04.947Z,1019.68
2017-01-24T00:52:01.438Z,1019.69
2017-01-24T00:56:58.501Z,1019.68
2017-01-24T01:01:54.708Z,1019.65
2017-01-24T01:06:51.287Z,1019.64
2017-01-24T01:11:47.826Z,1019.60
2017-01-24T01:16:44.208Z,1019.63
2017-01-24T01:21:40.447Z,1019.57
2017-01-24T01:26:36.761Z,1019.64
2017-01-24T01:31:33.142Z,1019.75
2017-01-24T01:36:29.251Z,1019.71
2017-01-24T01:41:25.928Z,1019.74
2017-01-24T01:46:22.275Z,1019.72
2017-01-24T01:51:18.799Z,1019.81
2017-01-24T01:56:15.209Z,1019.73
2017-01-24T02:01:11.759Z,1019.71
2017-01-24T02:06:09.351Z,1019.62
2017-01-24T02:11:05.331Z,1019.76
2017-01-24T02:16:01.783Z,1019.64
2017-01-24T02:20:58.953Z,1019.74
2017-01-24T02:25:55.847Z,1019.70
2017-01-24T02:30:51.692Z,1019.67
2017-01-24T02:35:48.096Z,1019.61
2017-01-24T02:40:45.115Z,1019.72
2017-01-24T02:45:41.171Z,1019.62
2017-01-24T02:50:38.354Z,1019.58
2017-01-24T02:55:34.948Z,1019.65
2017-01-24T03:00:31.849Z,1019.64
2017-01-24T03:05:28.119Z,1019.59
2017-01-24T03:10:24.387Z,1019.71
2017-01-24T03:15:20.688Z,1019.62
2017-01-24T03:20:18.574Z,1019.54
2017-01-24T03:25:14.629Z,1019.63
2017-01-24T03:30:11.068Z,1019.57
2017-01-24T03:35:07.389Z,1019.62
2017-01-24T03:40:03.966Z,1019.59
2017-01-24T03:45:00.205Z,1019.61
2017-01-24T03:49:56.630Z,1019.70
2017-01-24T03:54:53.101Z,1019.75
2017-01-24T03:59:49.645Z,1019.66
2017-01-24T04:04:46.187Z,1019.80
2017-01-24T04:09:43.446Z,1019.76
2017-01-24T04:14:39.570Z,1019.72
2017-01-24T04:19:36.002Z,1019.77
2017-01-24T04:24:32.792Z,1019.77
2017-01-24T04:29:29.438Z,1019.80
2017-01-24T04:34:27.005Z,1019.86
2017-01-24T04:39:23.500Z,1019.68
2017-01-24T04:44:19.652Z,1019.80
2017-01-24T04:49:16.249Z,1019.80
2017-01-24T04:54:13.193Z,1019.77
2017-01-24T04:59:10.662Z,1019.73
2017-01-24T05:04:06.957Z,1019.84
2017-01-24T05:09:03.997Z,1019.82
2017-01-24T05:14:00.222Z,1019.87
2017-01-24T05:18:56.757Z,1019.88
2017-01-24T05:23:53.571Z,1020.01
2017-01-24T05:28:49.761Z,1020.00
2017-01-24T05:33:46.025Z,1020.05
2017-01-24T05:38:42.772Z,1020.09
2017-01-24T05:43:39.101Z,1020.14
2017-01-24T05:48:35.585Z,1020.12
2017-01-24T05:53:32.055Z,1020.08
2017-01-24T05:58:28.348Z,1020.13
2017-01-24T06:03:24.691Z,1020.11
2017-01-24T06:08:21.265Z,1020.28
2017-01-24T06:13:17.330Z,1020.30
2017-01-24T06:18:13.732Z,1020.41
2017-01-24T06:23:10.130Z,1020.35
2017-01-24T06:28:06.403Z,1020.39
2017-01-24T06:33:02.639Z,1020.26
2017-01-24T06:38:00.091Z,1020.39
2017-01-24T06:42:56.068Z,1020.53
2017-01-24T06:47:52.493Z,1020.59
2017-01-24T06:52:48.760Z,1020.65
2017-01-24T06:57:44.929Z,1020.84
2017-01-24T07:02:42.577Z,1020.82
2017-01-24T07:07:38.889Z,1020.90
2017-01-24T07:12:35.141Z,1020.86
2017-01-24T07:17:31.649Z,1020.92
2017-01-24T07:22:27.985Z,1020.96
2017-01-24T07:27:24.481Z,1021.08
2017-01-24T07:32:22.996Z,1020.95
2017-01-24T07:37:19.052Z,1020.93
2017-01-24T07:42:15.589Z,1020.91
2017-01-24T07:47:12.007Z,1020.99
2017-01-24T07:52:08.057Z,1021.03
2017-01-24T07:57:05.680Z,1021.05
2017-01-24T08:02:01.941Z,1021.10
2017-01-24T08:06:58.610Z,1021.15
2017-01-24T08:11:55.085Z,1021.22
2017-01-24T08:16:51.414Z,1021.26
2017-01-24T08:21:47.697Z,1021.28
2017-01-24T08:26:44.926Z,1021.31
2017-01-24T08:31:41.359Z,1021.41
2017-01-24T08:36:37.784Z,1021.40
2017-01-24T08:41:34.423Z,1021.42
2017-01-24T08:46:31.519Z,1021.42
2017-01-24T08:51:27.919Z,1021.51
2017-01-24T08:56:24.269Z,1021.62
2017-01-24T09:01:20.803Z,1021.59
2017-01-24T09:06:17.198Z,1021.67
2017-01-24T09:11:14.537Z,1021.66
2017-01-24T09:16:11.021Z,1021.83
2017-01-24T09:21:07.562Z,1021.78
2017-01-24T09:26:03.712Z,1021.88
2017-01-24T09:31:00.435Z,1021.89
2017-01-24T09:35:57.036Z,1021.94
2017-01-24T09:40:53.187Z,1022.01
2017-01-24T09:45:50.360Z,1022.07
2017-01-24T09:50:47.719Z,1022.15
2017-01-24T09:55:44.915Z,1022.29
2017-01-24T10:00:41.067Z,1022.34
2017-01-24T10:05:37.423Z,1022.30
2017-01-24T10:10:34.203Z,1022.45
2017-01-24T10:15:30.823Z,1022.49
2017-01-24T10:20:27.287Z,1022.47
2017-01-24T10:25:23.310Z,1022.56
2017-01-24T10:30:19.641Z,1022.52
2017-01-24T10:35:15.929Z,1022.59
2017-01-24T10:40:12.211Z,1022.59
2017-01-24T10:45:09.563Z,1022.72
2017-01-24T10:50:06.988Z,1022.70
2017-01-24T10:55:03.993Z,1022.59
2017-01-24T11:00:00.063Z,1022.46
2017-01-24T11:04:56.711Z,1022.59
2017-01-24T11:09:53.200Z,1022.55
2017-01-24T11:14:49.802Z,1022.60
2017-01-24T11:19:46.121Z,1022.53
2017-01-24T11:24:45.931Z,1022.53
2017-01-24T11:29:41.740Z,1022.53
2017-01-24T11:34:40.593Z,1022.49
2017-01-24T11:39:36.255Z,1022.53
2017-01-24T11:44:32.723Z,1022.58
2017-01-24T11:49:29.749Z,1022.51
2017-01-24T11:54:26.773Z,1022.55
2017-01-24T11:59:24.080Z,1022.49
2017-01-24T12:04:20.441Z,1022.60
2017-01-24T12:09:17.273Z,1022.64
2017-01-24T12:14:13.436Z,1022.53
2017-01-24T12:19:09.814Z,1022.61
2017-01-24T12:24:06.838Z,1022.54
2017-01-24T12:29:03.178Z,1022.53
2017-01-24T12:33:59.668Z,1022.60
2017-01-24T12:38:56.096Z,1022.47
2017-01-24T12:43:53.514Z,1022.52
2017-01-24T12:48:49.787Z,1022.44
2017-01-24T12:53:46.137Z,1022.56
2017-01-24T12:58:42.471Z,1022.47
2017-01-24T13:03:38.709Z,1022.47
2017-01-24T13:08:35.056Z,1022.49
2017-01-24T13:13:31.530Z,1022.40
2017-01-24T13:18:27.826Z,1022.43
2017-01-24T13:23:24.227Z,1022.43
2017-01-24T13:28:20.895Z,1022.42
2017-01-24T13:33:17.467Z,1022.40
2017-01-24T13:38:13.866Z,1022.50
2017-01-24T13:43:09.937Z,1022.42
2017-01-24T13:48:06.921Z,1022.47
2017-01-24T13:53:03.508Z,1022.49
2017-01-24T13:57:59.841Z,1022.49
2017-01-24T14:02:56.177Z,1022.53
2017-01-24T14:07:52.347Z,1022.47
2017-01-24T14:12:48.885Z,1022.42
2017-01-24T14:17:45.356Z,1022.58
2017-01-24T14:22:41.810Z,1022.64
2017-01-24T14:27:38.144Z,1022.64
2017-01-24T14:32:34.527Z,1022.69
2017-01-24T14:37:30.773Z,1022.71
2017-01-24T14:42:27.330Z,1022.73
2017-01-24T14:47:23.520Z,1022.69
2017-01-24T14:52:20.492Z,1022.80
2017-01-24T14:57:17.634Z,1022.74
2017-01-24T15:02:13.982Z,1022.82
2017-01-24T15:07:10.252Z,1022.91
2017-01-24T15:12:06.792Z,1022.95
2017-01-24T15:17:03.775Z,1022.95
2017-01-24T15:21:59.679Z,1023.02
2017-01-24T15:26:56.989Z,1023.08
2017-01-24T15:31:53.182Z,1023.05
2017-01-24T15:36:49.615Z,1023.00
2017-01-24T15:41:45.934Z,1023.05
2017-01-24T15:46:42.467Z,1023.15
2017-01-24T15:51:40.955Z,1023.32
2017-01-24T15:56:37.101Z,1023.26
2017-01-24T16:01:33.648Z,1023.33
2017-01-24T16:06:30.132Z,1023.34
2017-01-24T16:11:26.489Z,1023.25
2017-01-24T16:16:22.858Z,1023.21
2017-01-24T16:21:19.300Z,1023.22
2017-01-24T16:26:15.797Z,1023.31
2017-01-24T16:31:12.192Z,1023.45
2017-01-24T16:36:08.116Z,1023.45
2017-01-24T16:41:04.558Z,1023.48
2017-01-24T16:46:01.616Z,1023.50
2017-01-24T16:50:58.255Z,1023.45
2017-01-24T16:55:55.774Z,1023.41
2017-01-24T17:00:52.152Z,1023.50
2017-01-24T17:05:48.259Z,1023.61
2017-01-24T17:10:44.846Z,1023.45
2017-01-24T17:15:41.392Z,1023.62
2017-01-24T17:20:38.236Z,1023.69
2017-01-24T17:25:35.222Z,1023.61
2017-01-24T17:30:31.607Z,1023.70
2017-01-24T17:35:28.157Z,1023.72
2017-01-24T17:40:24.590Z,1023.88
2017-01-24T17:45:21.071Z,1023.83
2017-01-24T17:50:17.451Z,1023.84
2017-01-24T17:55:13.542Z,1023.86
2017-01-24T18:00:09.849Z,1023.96
2017-01-24T18:05:06.146Z,1023.91
2017-01-24T18:10:03.128Z,1023.82
2017-01-24T18:14:59.588Z,1023.91
2017-01-24T18:19:56.141Z,1023.93
2017-01-24T18:24:52.516Z,1023.97
2017-01-24T18:29:48.960Z,1023.98
2017-01-24T18:34:45.366Z,1024.10
2017-01-24T18:39:41.685Z,1024.00
2017-01-24T18:44:38.910Z,1023.92
2017-01-24T18:49:35.345Z,1023.95
2017-01-24T18:54:31.751Z,1024.09
2017-01-24T18:59:28.062Z,1024.17
2017-01-24T19:04:24.948Z,1024.11
2017-01-24T19:09:21.447Z,1024.25
2017-01-24T19:14:17.758Z,1024.33
2017-01-24T19:19:13.996Z,1024.40
2017-01-24T19:24:10.564Z,1024.40
2017-01-24T19:29:06.882Z,1024.43
2017-01-24T19:34:03.322Z,1024.60
2017-01-24T19:38:59.973Z,1024.60
2017-01-24T19:43:56.384Z,1024.50
2017-01-24T19:48:53.076Z,1024.62
2017-01-24T19:53:49.302Z,1024.54
2017-01-24T19:58:45.659Z,1024.66
2017-01-24T20:03:42.198Z,1024.69
2017-01-24T20:08:38.558Z,1024.69
2017-01-24T20:13:35.040Z,1024.59
2017-01-24T20:18:32.566Z,1024.68
2017-01-24T20:23:28.744Z,1024.71
2017-01-24T20:28:25.172Z,1024.72
2017-01-24T20:33:21.708Z,1024.80
2017-01-24T20:38:18.120Z,1024.83
2017-01-24T20:43:14.388Z,1024.78
2017-01-24T20:48:10.788Z,1024.86
2017-01-24T20:53:07.019Z,1024.87
2017-01-24T20:58:03.430Z,1024.86
2017-01-24T21:02:59.831Z,1024.77
2017-01-24T21:07:56.313Z,1024.73
2017-01-24T21:12:52.527Z,1024.77
2017-01-24T21:17:48.884Z,1024.78
2017-01-24T21:22:45.311Z,1024.88
2017-01-24T21:27:41.480Z,1024.84
2017-01-24T21:32:38.029Z,1024.83
2017-01-24T21:37:34.981Z,1024.82
2017-01-24T21:42:31.053Z,1024.74
2017-01-24T21:47:27.588Z,1024.74
2017-01-24T21:52:23.868Z,1024.71
2017-01-24T21:57:20.568Z,1024.69
2017-01-24T22:02:16.980Z,1024.74
2017-01-24T22:07:14.424Z,1024.83
2017-01-24T22:12:10.686Z,1024.65
2017-01-24T22:17:06.949Z,1024.68
2017-01-24T22:22:04.365Z,1024.66
2017-01-24T22:27:00.186Z,1024.69
2017-01-24T22:31:56.548Z,1024.66
2017-01-24T22:36:53.062Z,1024.66
2017-01-24T22:41:49.152Z,1024.64
2017-01-24T22:46:48.292Z,1024.53
2017-01-24T22:51:44.040Z,1024.59
2017-01-24T22:56:40.242Z,1024.62
2017-01-24T23:01:36.451Z,1024.61
2017-01-24T23:06:32.986Z,1024.57
2017-01-24T23:11:29.433Z,1024.65
2017-01-24T23:16:25.898Z,1024.64
2017-01-24T23:21:22.075Z,1024.74
2017-01-24T23:26:18.279Z,1024.55
2017-01-24T23:31:14.660Z,1024.53
2017-01-24T23:36:10.964Z,1024.45
2017-01-24T23:41:09.102Z,1024.43
2017-01-24T23:46:05.295Z,1024.30
2017-01-24T23:51:02.739Z,1024.18
2017-01-24T23:55:58.967Z,1024.31
